createdAt,value
2017-10-14T00:01:24.574Z,15.30
2017-10-14T00:03:51.091Z,15.30
2017-10-14T00:06:17.364Z,15.30
2017-10-14T00:08:44.531Z,15.40
2017-10-14T00:11:11.000Z,15.40
2017-10-14T00:13:37.341Z,15.50
2017-10-14T00:16:03.695Z,15.50
2017-10-14T00:18:30.793Z,15.40
2017-10-14T00:20:57.175Z,15.40
2017-10-14T00:23:24.239Z,15.50
2017-10-14T00:25:51.368Z,15.40
2017-10-14T00:28:24.949Z,15.40
2017-10-14T00:30:51.314Z,15.40
2017-10-14T00:33:17.601Z,15.50
2017-10-14T00:35:43.921Z,15.40
2017-10-14T00:38:10.247Z,15.40
2017-10-14T00:40:36.599Z,15.40
2017-10-14T00:43:02.995Z,15.40
2017-10-14T00:45:29.357Z,15.40
2017-10-14T00:47:55.721Z,15.40
2017-10-14T00:50:22.033Z,15.50
2017-10-14T00:52:48.390Z,15.50
2017-10-14T00:55:15.500Z,15.50
2017-10-14T00:57:41.822Z,15.50
2017-10-14T01:00:08.227Z,15.40
2017-10-14T01:02:34.562Z,15.40
2017-10-14T01:05:01.155Z,15.40
2017-10-14T01:07:28.279Z,15.40
2017-10-14T01:09:54.660Z,15.40
2017-10-14T01:12:21.733Z,15.30
2017-10-14T01:14:48.054Z,15.30
2017-10-14T01:17:14.400Z,15.30
2017-10-14T01:19:40.738Z,15.30
2017-10-14T01:22:07.103Z,15.30
2017-10-14T01:24:34.182Z,15.20
2017-10-14T01:27:00.574Z,15.20
2017-10-14T01:29:27.698Z,15.30
2017-10-14T01:31:53.985Z,15.30
2017-10-14T01:34:21.125Z,15.30
2017-10-14T01:36:48.179Z,15.30
2017-10-14T01:39:21.529Z,15.30
2017-10-14T01:41:47.842Z,15.30
2017-10-14T01:44:14.230Z,15.30
2017-10-14T01:46:41.324Z,15.30
2017-10-14T01:49:07.668Z,15.30
2017-10-14T01:51:34.028Z,15.20
2017-10-14T01:54:00.297Z,15.20
2017-10-14T01:56:26.612Z,15.30
2017-10-14T01:58:53.652Z,15.40
2017-10-14T02:01:19.984Z,15.40
2017-10-14T02:03:46.992Z,15.40
2017-10-14T02:06:13.301Z,15.40
2017-10-14T02:08:39.603Z,15.40
2017-10-14T02:11:05.911Z,15.20
2017-10-14T02:13:32.965Z,15.00
2017-10-14T02:15:59.992Z,14.90
2017-10-14T02:18:27.076Z,14.80
2017-10-14T02:20:53.384Z,14.80
2017-10-14T02:23:20.480Z,14.70
2017-10-14T02:25:46.899Z,14.70
2017-10-14T02:28:13.224Z,14.70
2017-10-14T02:30:39.516Z,14.60
2017-10-14T02:33:06.646Z,14.50
2017-10-14T02:35:32.940Z,14.50
2017-10-14T02:37:59.303Z,14.50
2017-10-14T02:40:25.584Z,14.50
2017-10-14T02:42:53.140Z,14.50
2017-10-14T02:45:19.421Z,14.40
2017-10-14T02:47:45.776Z,14.50
2017-10-14T02:50:12.812Z,14.40
2017-10-14T02:52:39.104Z,14.40
2017-10-14T02:55:05.611Z,14.40
2017-10-14T02:57:31.889Z,14.30
2017-10-14T02:59:58.208Z,14.30
2017-10-14T03:02:24.505Z,14.20
2017-10-14T03:04:51.500Z,14.20
2017-10-14T03:07:19.280Z,14.20
2017-10-14T03:09:46.311Z,14.20
2017-10-14T03:12:12.594Z,14.20
2017-10-14T03:14:38.887Z,14.20
2017-10-14T03:17:05.936Z,14.10
2017-10-14T03:19:33.020Z,14.00
2017-10-14T03:21:59.333Z,14.00
2017-10-14T03:24:26.372Z,14.00
2017-10-14T03:26:53.428Z,14.00
2017-10-14T03:29:19.731Z,14.00
2017-10-14T03:31:46.045Z,13.90
2017-10-14T03:34:12.336Z,13.70
2017-10-14T03:36:38.627Z,13.50
2017-10-14T03:39:04.900Z,13.30
2017-10-14T03:41:31.180Z,13.20
2017-10-14T03:43:57.500Z,13.00
2017-10-14T03:46:23.804Z,12.90
2017-10-14T03:48:50.110Z,12.80
2017-10-14T03:51:16.394Z,12.80
2017-10-14T03:53:42.727Z,12.70
2017-10-14T03:56:09.776Z,12.50
2017-10-14T03:58:36.872Z,12.50
2017-10-14T04:01:03.188Z,12.40
2017-10-14T04:03:29.500Z,12.40
2017-10-14T04:05:56.589Z,12.30
2017-10-14T04:08:22.924Z,12.30
2017-10-14T04:10:49.432Z,12.20
2017-10-14T04:13:15.715Z,12.10
2017-10-14T04:15:42.014Z,12.10
2017-10-14T04:18:08.296Z,12.10
2017-10-14T04:20:35.326Z,12.00
2017-10-14T04:23:01.636Z,11.90
2017-10-14T04:25:27.944Z,11.90
2017-10-14T04:27:54.244Z,11.90
2017-10-14T04:30:21.280Z,11.80
2017-10-14T04:32:48.297Z,11.80
2017-10-14T04:35:14.595Z,11.80
2017-10-14T04:37:40.911Z,11.80
2017-10-14T04:40:07.200Z,11.70
2017-10-14T04:42:33.492Z,11.70
2017-10-14T04:44:59.767Z,11.60
2017-10-14T04:47:26.894Z,11.70
2017-10-14T04:49:53.180Z,11.70
2017-10-14T04:52:19.499Z,11.80
2017-10-14T04:54:45.789Z,11.80
2017-10-14T04:57:12.115Z,11.80
2017-10-14T04:59:38.408Z,11.80
2017-10-14T05:02:04.770Z,11.70
2017-10-14T05:04:31.131Z,11.70
2017-10-14T05:06:58.165Z,11.60
2017-10-14T05:09:24.487Z,11.60
2017-10-14T05:11:50.772Z,11.50
2017-10-14T05:14:17.077Z,11.50
2017-10-14T05:16:44.085Z,11.60
2017-10-14T05:19:10.412Z,11.50
2017-10-14T05:21:36.741Z,11.50
2017-10-14T05:24:03.040Z,11.40
2017-10-14T05:26:29.342Z,11.30
2017-10-14T05:28:56.392Z,11.30
2017-10-14T05:31:23.454Z,11.30
2017-10-14T05:33:49.757Z,11.30
2017-10-14T05:36:16.808Z,11.40
2017-10-14T05:38:43.851Z,11.40
2017-10-14T05:41:10.926Z,11.50
2017-10-14T05:43:37.256Z,11.50
2017-10-14T05:46:03.568Z,11.50
2017-10-14T05:48:30.732Z,11.50
2017-10-14T05:50:57.024Z,11.50
2017-10-14T05:53:23.332Z,11.50
2017-10-14T05:55:49.641Z,11.50
2017-10-14T05:58:15.961Z,11.60
2017-10-14T06:00:42.248Z,11.60
2017-10-14T06:03:08.550Z,11.60
2017-10-14T06:05:34.996Z,11.60
2017-10-14T06:08:01.316Z,11.60
2017-10-14T06:10:27.617Z,11.70
2017-10-14T06:12:53.991Z,11.80
2017-10-14T06:15:20.269Z,11.90
2017-10-14T06:17:46.616Z,11.90
2017-10-14T06:20:12.924Z,12.10
2017-10-14T06:22:39.280Z,12.60
2017-10-14T06:25:05.660Z,13.30
2017-10-14T06:27:32.008Z,14.00
2017-10-14T06:29:59.052Z,14.40
2017-10-14T06:32:26.097Z,14.30
2017-10-14T06:34:53.285Z,14.30
2017-10-14T06:37:19.571Z,14.20
2017-10-14T06:39:46.611Z,14.40
2017-10-14T06:42:12.927Z,14.40
2017-10-14T06:44:39.285Z,14.60
2017-10-14T06:47:06.304Z,15.10
2017-10-14T06:49:32.613Z,15.10
2017-10-14T06:51:58.884Z,15.80
2017-10-14T06:54:26.036Z,16.30
2017-10-14T06:56:53.153Z,16.30
2017-10-14T06:59:19.474Z,16.30
2017-10-14T07:01:45.797Z,16.30
2017-10-14T07:04:12.168Z,17.40
2017-10-14T07:06:38.468Z,19.10
2017-10-14T07:09:04.764Z,20.70
2017-10-14T07:11:31.068Z,22.30
2017-10-14T07:13:58.159Z,25.30
2017-10-14T07:16:24.446Z,25.20
2017-10-14T07:18:51.509Z,27.50
2017-10-14T07:21:18.777Z,28.60
2017-10-14T07:23:45.177Z,28.50
2017-10-14T07:26:12.267Z,30.30
2017-10-14T07:28:38.564Z,30.30
2017-10-14T07:31:05.646Z,31.70
2017-10-14T07:33:31.929Z,31.70
2017-10-14T07:35:58.997Z,32.80
2017-10-14T07:38:25.315Z,32.70
2017-10-14T07:40:52.398Z,33.40
2017-10-14T07:43:18.701Z,33.40
2017-10-14T07:45:45.052Z,33.80
2017-10-14T07:48:11.717Z,34.20
2017-10-14T07:50:38.052Z,34.60
2017-10-14T07:53:04.364Z,34.80
2017-10-14T07:55:33.777Z,35.20
2017-10-14T07:58:00.113Z,35.50
2017-10-14T08:00:26.446Z,35.80
2017-10-14T08:02:52.755Z,35.80
2017-10-14T08:05:19.140Z,36.00
2017-10-14T08:07:46.228Z,36.00
2017-10-14T08:10:12.528Z,36.00
2017-10-14T08:12:39.559Z,36.20
2017-10-14T08:15:05.887Z,36.20
2017-10-14T08:17:32.212Z,36.40
2017-10-14T08:19:58.540Z,36.40
2017-10-14T08:22:24.949Z,36.90
2017-10-14T08:24:51.347Z,37.10
2017-10-14T08:27:17.661Z,37.00
2017-10-14T08:29:44.744Z,37.30
2017-10-14T08:32:11.082Z,37.20
2017-10-14T08:34:37.397Z,37.30
2017-10-14T08:37:03.692Z,37.90
2017-10-14T08:39:30.797Z,37.90
2017-10-14T08:41:57.094Z,37.80
2017-10-14T08:44:23.402Z,37.30
2017-10-14T08:46:50.489Z,36.60
2017-10-14T08:49:16.801Z,36.60
2017-10-14T08:51:43.087Z,36.60
2017-10-14T08:54:09.432Z,36.20
2017-10-14T08:56:36.547Z,35.50
2017-10-14T08:59:02.875Z,35.50
2017-10-14T09:01:29.182Z,34.60
2017-10-14T09:03:55.462Z,34.20
2017-10-14T09:06:21.789Z,33.60
2017-10-14T09:08:48.085Z,32.60
2017-10-14T09:11:14.504Z,31.00
2017-10-14T09:13:40.892Z,29.60
2017-10-14T09:16:07.948Z,26.50
2017-10-14T09:18:35.032Z,25.70
2017-10-14T09:21:01.361Z,25.60
2017-10-14T09:23:27.694Z,24.40
2017-10-14T09:25:53.995Z,23.30
2017-10-14T09:28:20.313Z,22.50
2017-10-14T09:30:47.376Z,21.40
2017-10-14T09:33:13.696Z,21.40
2017-10-14T09:35:40.940Z,21.10
2017-10-14T09:38:07.974Z,20.80
2017-10-14T09:40:34.252Z,20.80
2017-10-14T09:43:00.577Z,20.60
2017-10-14T09:45:26.900Z,20.40
2017-10-14T09:47:53.218Z,20.00
2017-10-14T09:50:20.256Z,19.80
2017-10-14T09:52:47.268Z,19.80
2017-10-14T09:55:13.608Z,19.80
2017-10-14T09:57:39.919Z,19.80
2017-10-14T10:00:06.264Z,19.70
2017-10-14T10:02:33.309Z,19.60
2017-10-14T10:04:59.604Z,19.60
2017-10-14T10:07:25.921Z,19.70
2017-10-14T10:09:52.219Z,19.60
2017-10-14T10:12:19.380Z,19.70
2017-10-14T10:14:46.417Z,19.70
2017-10-14T10:17:12.753Z,19.70
2017-10-14T10:19:39.837Z,19.90
2017-10-14T10:22:06.188Z,19.90
2017-10-14T10:24:32.500Z,19.90
2017-10-14T10:26:58.868Z,19.90
2017-10-14T10:29:25.179Z,19.90
2017-10-14T10:31:51.487Z,19.80
2017-10-14T10:34:17.795Z,19.90
2017-10-14T10:36:44.896Z,19.90
2017-10-14T10:39:18.168Z,19.80
2017-10-14T10:41:44.454Z,19.90
2017-10-14T10:44:11.507Z,20.10
2017-10-14T10:46:38.788Z,20.20
2017-10-14T10:49:05.124Z,20.20
2017-10-14T10:51:31.520Z,20.20
2017-10-14T10:53:58.597Z,20.10
2017-10-14T10:56:25.021Z,20.00
2017-10-14T10:58:51.328Z,20.00
2017-10-14T11:01:18.373Z,20.20
2017-10-14T11:03:45.417Z,20.30
2017-10-14T11:06:11.722Z,20.30
2017-10-14T11:08:39.509Z,20.20
2017-10-14T11:11:05.836Z,20.20
2017-10-14T11:13:32.160Z,20.40
2017-10-14T11:15:58.491Z,20.40
2017-10-14T11:18:24.839Z,20.40
2017-10-14T11:20:51.912Z,20.50
2017-10-14T11:23:18.233Z,20.50
2017-10-14T11:25:45.305Z,20.60
2017-10-14T11:28:11.652Z,20.60
2017-10-14T11:30:37.960Z,20.50
2017-10-14T11:33:04.282Z,20.70
2017-10-14T11:35:30.602Z,20.80
2017-10-14T11:37:57.663Z,20.90
2017-10-14T11:40:23.991Z,20.90
2017-10-14T11:42:50.336Z,20.90
2017-10-14T11:45:16.678Z,20.90
2017-10-14T11:47:43.057Z,20.80
2017-10-14T11:50:10.088Z,20.90
2017-10-14T11:52:36.401Z,20.90
2017-10-14T11:55:02.761Z,20.90
2017-10-14T11:57:29.264Z,20.90
2017-10-14T11:59:55.737Z,21.00
2017-10-14T12:02:22.792Z,21.00
2017-10-14T12:04:49.870Z,20.90
2017-10-14T12:07:16.169Z,20.90
2017-10-14T12:09:43.227Z,21.00
2017-10-14T12:12:09.564Z,21.00
2017-10-14T12:14:35.864Z,21.00
2017-10-14T12:17:02.967Z,21.00
2017-10-14T12:19:29.245Z,20.90
2017-10-14T12:21:56.400Z,21.00
2017-10-14T12:24:22.745Z,21.00
2017-10-14T12:26:49.088Z,21.00
2017-10-14T12:29:15.462Z,21.00
2017-10-14T12:31:41.749Z,20.90
2017-10-14T12:34:08.073Z,20.90
2017-10-14T12:36:34.385Z,21.00
2017-10-14T12:39:00.691Z,21.00
2017-10-14T12:41:27.062Z,21.10
2017-10-14T12:43:53.377Z,21.10
2017-10-14T12:46:20.417Z,21.00
2017-10-14T12:48:47.688Z,20.90
2017-10-14T12:51:14.030Z,20.90
2017-10-14T12:53:40.328Z,20.90
2017-10-14T12:56:07.553Z,21.00
2017-10-14T12:58:35.370Z,21.10
2017-10-14T13:01:01.625Z,21.10
2017-10-14T13:03:27.940Z,21.10
2017-10-14T13:05:54.254Z,21.10
2017-10-14T13:08:20.556Z,21.10
2017-10-14T13:10:46.958Z,21.10
2017-10-14T13:13:13.285Z,21.10
2017-10-14T13:15:39.651Z,21.20
2017-10-14T13:18:06.724Z,21.10
2017-10-14T13:20:33.098Z,21.10
2017-10-14T13:22:59.460Z,21.00
2017-10-14T13:25:25.819Z,20.90
2017-10-14T13:27:52.158Z,20.80
2017-10-14T13:30:18.449Z,20.80
2017-10-14T13:32:44.784Z,20.70
2017-10-14T13:35:11.077Z,20.80
2017-10-14T13:37:37.389Z,20.90
2017-10-14T13:40:03.705Z,20.80
2017-10-14T13:42:29.976Z,20.80
2017-10-14T13:44:56.281Z,20.80
2017-10-14T13:47:22.595Z,20.80
2017-10-14T13:49:48.924Z,20.70
2017-10-14T13:52:15.216Z,20.80
2017-10-14T13:54:41.520Z,20.70
2017-10-14T13:57:07.883Z,20.70
2017-10-14T13:59:34.937Z,20.60
2017-10-14T14:02:02.014Z,20.70
2017-10-14T14:04:28.340Z,20.60
2017-10-14T14:06:54.646Z,20.80
2017-10-14T14:09:21.707Z,20.80
2017-10-14T14:11:48.029Z,20.80
2017-10-14T14:14:15.065Z,20.80
2017-10-14T14:16:42.126Z,20.90
2017-10-14T14:19:09.394Z,20.90
2017-10-14T14:21:35.726Z,20.90
2017-10-14T14:24:02.017Z,20.80
2017-10-14T14:26:28.325Z,20.80
2017-10-14T14:28:54.610Z,20.80
2017-10-14T14:31:20.947Z,20.70
2017-10-14T14:33:47.257Z,20.60
2017-10-14T14:36:13.610Z,20.60
2017-10-14T14:38:39.941Z,20.60
2017-10-14T14:41:06.237Z,20.70
2017-10-14T14:43:33.323Z,20.80
2017-10-14T14:45:59.633Z,20.80
2017-10-14T14:48:25.947Z,20.70
2017-10-14T14:50:53.055Z,20.50
2017-10-14T14:53:19.420Z,20.50
2017-10-14T14:55:45.727Z,20.40
2017-10-14T14:58:12.016Z,20.40
2017-10-14T15:00:38.348Z,20.30
2017-10-14T15:03:04.648Z,20.30
2017-10-14T15:05:31.721Z,20.20
2017-10-14T15:07:58.026Z,20.20
2017-10-14T15:10:25.083Z,20.20
2017-10-14T15:12:52.116Z,20.10
2017-10-14T15:15:19.144Z,20.00
2017-10-14T15:17:47.116Z,19.90
2017-10-14T15:20:13.469Z,19.90
2017-10-14T15:22:39.766Z,19.90
2017-10-14T15:25:06.097Z,19.80
2017-10-14T15:27:32.408Z,19.70
2017-10-14T15:29:58.784Z,19.70
2017-10-14T15:32:25.860Z,19.50
2017-10-14T15:34:52.292Z,19.50
2017-10-14T15:37:18.614Z,19.50
2017-10-14T15:39:44.922Z,19.40
2017-10-14T15:42:11.967Z,19.30
2017-10-14T15:44:39.029Z,19.30
2017-10-14T15:47:06.149Z,19.30
2017-10-14T15:49:32.452Z,19.20
2017-10-14T15:51:58.785Z,19.10
2017-10-14T15:54:25.177Z,19.00
2017-10-14T15:56:51.721Z,19.00
2017-10-14T15:59:18.036Z,18.90
2017-10-14T16:01:45.144Z,18.80
2017-10-14T16:04:11.597Z,18.70
2017-10-14T16:06:37.924Z,18.70
2017-10-14T16:09:04.241Z,18.70
2017-10-14T16:11:30.573Z,18.60
2017-10-14T16:13:56.880Z,18.60
2017-10-14T16:16:23.253Z,18.50
2017-10-14T16:18:50.311Z,18.40
2017-10-14T16:21:17.385Z,18.30
2017-10-14T16:23:43.724Z,18.30
2017-10-14T16:26:10.012Z,18.30
2017-10-14T16:28:37.165Z,18.00
2017-10-14T16:31:03.757Z,18.00
2017-10-14T16:33:30.058Z,17.90
2017-10-14T16:35:56.593Z,17.80
2017-10-14T16:38:22.885Z,17.60
2017-10-14T16:40:49.212Z,17.40
2017-10-14T16:43:16.276Z,17.20
2017-10-14T16:45:43.339Z,17.10
2017-10-14T16:48:09.659Z,17.10
2017-10-14T16:50:36.747Z,16.90
2017-10-14T16:53:03.069Z,16.80
2017-10-14T16:55:29.469Z,16.90
2017-10-14T16:57:56.616Z,16.70
2017-10-14T17:00:23.638Z,16.50
2017-10-14T17:02:49.965Z,16.50
2017-10-14T17:05:17.750Z,16.20
2017-10-14T17:07:44.834Z,16.10
2017-10-14T17:10:11.153Z,16.10
2017-10-14T17:12:37.585Z,16.10
2017-10-14T17:15:03.930Z,16.00
2017-10-14T17:17:30.321Z,16.00
2017-10-14T17:19:57.389Z,15.80
2017-10-14T17:22:23.672Z,15.80
2017-10-14T17:24:50.007Z,15.70
2017-10-14T17:27:16.313Z,15.60
2017-10-14T17:29:42.619Z,15.60
2017-10-14T17:32:08.953Z,15.50
2017-10-14T17:34:35.410Z,15.40
2017-10-14T17:37:01.733Z,15.30
2017-10-14T17:39:28.057Z,15.20
2017-10-14T17:41:54.452Z,15.10
2017-10-14T17:44:21.509Z,15.00
2017-10-14T17:46:47.822Z,15.00
2017-10-14T17:49:15.810Z,15.00
2017-10-14T17:51:42.096Z,15.00
2017-10-14T17:54:08.420Z,15.00
2017-10-14T17:56:34.736Z,15.00
2017-10-14T17:59:01.257Z,14.90
2017-10-14T18:01:27.613Z,14.90
2017-10-14T18:03:53.929Z,14.90
2017-10-14T18:06:20.274Z,14.90
2017-10-14T18:08:46.634Z,14.90
2017-10-14T18:11:13.748Z,14.70
2017-10-14T18:13:40.124Z,14.70
2017-10-14T18:16:07.188Z,14.60
2017-10-14T18:18:33.569Z,14.50
2017-10-14T18:20:59.967Z,14.50
2017-10-14T18:23:26.346Z,14.50
2017-10-14T18:25:53.398Z,14.50
2017-10-14T18:28:20.503Z,14.50
2017-10-14T18:30:46.848Z,14.50
2017-10-14T18:33:13.277Z,14.50
2017-10-14T18:35:39.584Z,14.50
2017-10-14T18:38:05.909Z,14.50
2017-10-14T18:40:32.240Z,14.50
2017-10-14T18:42:58.590Z,14.50
2017-10-14T18:45:24.875Z,14.40
2017-10-14T18:47:51.972Z,14.30
2017-10-14T18:50:18.298Z,14.30
2017-10-14T18:52:44.596Z,14.30
2017-10-14T18:55:11.729Z,14.30
2017-10-14T18:57:39.008Z,14.30
2017-10-14T19:00:05.717Z,14.30
2017-10-14T19:02:32.841Z,14.40
2017-10-14T19:04:59.145Z,14.30
2017-10-14T19:07:25.489Z,14.40
2017-10-14T19:09:51.811Z,14.40
2017-10-14T19:12:18.139Z,14.50
2017-10-14T19:14:44.468Z,14.70
2017-10-14T19:17:11.013Z,14.70
2017-10-14T19:19:37.340Z,14.80
2017-10-14T19:22:03.664Z,14.80
2017-10-14T19:24:29.952Z,14.80
2017-10-14T19:26:57.043Z,14.80
2017-10-14T19:29:23.475Z,14.80
2017-10-14T19:31:49.862Z,14.80
2017-10-14T19:34:17.006Z,14.70
2017-10-14T19:36:44.095Z,14.60
2017-10-14T19:39:10.461Z,14.60
2017-10-14T19:41:36.956Z,14.60
2017-10-14T19:44:03.297Z,14.60
2017-10-14T19:46:29.726Z,14.60
2017-10-14T19:48:56.085Z,14.40
2017-10-14T19:51:22.622Z,14.40
2017-10-14T19:53:48.988Z,14.20
2017-10-14T19:56:16.159Z,14.10
2017-10-14T19:58:42.440Z,14.10
2017-10-14T20:01:08.825Z,14.00
2017-10-14T20:03:35.183Z,13.90
2017-10-14T20:06:01.569Z,13.90
2017-10-14T20:08:28.701Z,14.00
2017-10-14T20:10:55.786Z,14.00
2017-10-14T20:13:22.153Z,13.90
2017-10-14T20:15:48.504Z,13.80
2017-10-14T20:18:14.857Z,13.70
2017-10-14T20:20:42.029Z,13.50
2017-10-14T20:23:08.387Z,13.50
2017-10-14T20:25:34.810Z,13.50
2017-10-14T20:28:01.126Z,13.40
2017-10-14T20:30:27.468Z,13.40
2017-10-14T20:32:53.809Z,13.30
2017-10-14T20:35:20.185Z,13.30
2017-10-14T20:37:47.474Z,13.20
2017-10-14T20:40:13.781Z,13.20
2017-10-14T20:42:40.863Z,13.20
2017-10-14T20:45:07.495Z,13.20
2017-10-14T20:47:33.828Z,13.30
2017-10-14T20:50:00.214Z,13.30
2017-10-14T20:52:28.293Z,13.20
2017-10-14T20:54:55.382Z,13.10
2017-10-14T20:57:21.718Z,13.10
2017-10-14T20:59:48.018Z,13.20
2017-10-14T21:02:14.361Z,13.10
2017-10-14T21:04:40.686Z,13.00
2017-10-14T21:07:07.056Z,13.00
2017-10-14T21:09:33.556Z,13.00
2017-10-14T21:12:00.053Z,13.00
2017-10-14T21:14:27.367Z,12.90
2017-10-14T21:16:53.733Z,12.80
2017-10-14T21:19:20.315Z,12.80
2017-10-14T21:21:46.807Z,12.80
2017-10-14T21:24:13.315Z,12.80
2017-10-14T21:26:39.790Z,12.80
2017-10-14T21:29:07.076Z,12.70
2017-10-14T21:31:33.550Z,12.70
2017-10-14T21:33:59.914Z,12.70
2017-10-14T21:36:26.282Z,12.60
2017-10-14T21:38:52.724Z,12.60
2017-10-14T21:41:19.080Z,12.60
2017-10-14T21:43:45.385Z,12.60
2017-10-14T21:46:12.023Z,12.60
2017-10-14T21:48:39.438Z,12.70
2017-10-14T21:51:06.690Z,12.70
2017-10-14T21:53:33.685Z,12.70
2017-10-14T21:56:00.070Z,12.70
2017-10-14T21:58:27.450Z,12.60
2017-10-14T22:00:54.843Z,12.50
2017-10-14T22:03:22.450Z,12.40
2017-10-14T22:05:49.091Z,12.40
2017-10-14T22:08:16.542Z,12.40
2017-10-14T22:10:42.987Z,12.40
2017-10-14T22:13:09.802Z,12.50
2017-10-14T22:15:36.205Z,12.50
2017-10-14T22:18:02.725Z,12.50
2017-10-14T22:20:29.626Z,12.50
2017-10-14T22:22:55.963Z,12.50
2017-10-14T22:25:22.454Z,12.50
2017-10-14T22:27:49.680Z,12.50
2017-10-14T22:30:16.093Z,12.50
2017-10-14T22:32:42.485Z,12.50
2017-10-14T22:35:09.893Z,12.50
2017-10-14T22:37:37.082Z,12.60
2017-10-14T22:40:04.307Z,12.60
2017-10-14T22:42:31.459Z,12.60
2017-10-14T22:44:57.942Z,12.50
2017-10-14T22:47:24.291Z,12.50
2017-10-14T22:49:50.821Z,12.50
2017-10-14T22:52:17.201Z,12.40
2017-10-14T22:54:43.553Z,12.40
2017-10-14T22:57:10.724Z,12.40
2017-10-14T22:59:37.064Z,12.40
2017-10-14T23:02:03.368Z,12.40
2017-10-14T23:04:30.517Z,12.20
2017-10-14T23:06:56.841Z,12.20
2017-10-14T23:09:23.883Z,12.10
2017-10-14T23:11:50.925Z,12.10
2017-10-14T23:14:17.976Z,12.10
2017-10-14T23:16:45.075Z,12.00
2017-10-14T23:19:11.361Z,12.00
2017-10-14T23:21:38.390Z,11.90
2017-10-14T23:24:05.453Z,11.90
2017-10-14T23:26:32.528Z,11.90
2017-10-14T23:28:58.806Z,11.90
2017-10-14T23:31:25.130Z,11.90
2017-10-14T23:33:51.403Z,11.90
2017-10-14T23:36:17.721Z,11.80
2017-10-14T23:38:44.750Z,11.80
2017-10-14T23:41:11.108Z,11.80
2017-10-14T23:43:38.148Z,11.80
2017-10-14T23:46:05.218Z,11.80
2017-10-14T23:48:31.525Z,11.80
2017-10-14T23:50:58.563Z,11.80
2017-10-14T23:53:25.599Z,11.80
2017-10-14T23:55:53.525Z,11.70
2017-10-14T23:58:19.817Z,11.70
